sensor_id;sensor_type;location;lat;lon;timestamp;pressure;altitude;pressure_sealevel;temperature;humidity
12073;BME280;6098;49.004;8.372;2022-10-30T00:04:32;100741.56;;;16.05;98.19
12073;BME280;6098;49.004;8.372;2022-10-30T00:19:24;100738.59;;;15.95;96.09
12073;BME280;6098;49.004;8.372;2022-10-30T00:34:15;100744.55;;;15.91;95.98
12073;BME280;6098;49.004;8.372;2022-10-30T00:49:16;100738.91;;;15.89;95.78
12073;BME280;6098;49.004;8.372;2022-10-30T01:04:12;100719.67;;;15.90;95.49
12073;BME280;6098;49.004;8.372;2022-10-30T02:04:16;100712.70;;;15.71;95.26
12073;BME280;6098;49.004;8.372;2022-10-30T02:19:07;100707.81;;;15.55;95.11
12073;BME280;6098;49.004;8.372;2022-10-30T02:33:59;100697.48;;;15.40;95.21
12073;BME280;6098;49.004;8.372;2022-10-30T02:48:51;100702.52;;;15.20;95.47
12073;BME280;6098;49.004;8.372;2022-10-30T03:03:43;100701.78;;;15.09;95.47
12073;BME280;6098;49.004;8.372;2022-10-30T03:18:35;100704.55;;;14.90;94.62
12073;BME280;6098;49.004;8.372;2022-10-30T03:33:26;100706.00;;;14.79;95.23
12073;BME280;6098;49.004;8.372;2022-10-30T03:48:19;100707.70;;;14.72;95.52
12073;BME280;6098;49.004;8.372;2022-10-30T04:03:10;100716.09;;;14.65;94.27
12073;BME280;6098;49.004;8.372;2022-10-30T04:18:05;100708.79;;;14.51;93.73
12073;BME280;6098;49.004;8.372;2022-10-30T04:32:56;100700.34;;;14.42;93.70
12073;BME280;6098;49.004;8.372;2022-10-30T04:47:48;100705.45;;;14.28;93.15
12073;BME280;6098;49.004;8.372;2022-10-30T05:02:39;100695.31;;;14.17;92.97
12073;BME280;6098;49.004;8.372;2022-10-30T05:17:31;100678.72;;;14.02;93.02
12073;BME280;6098;49.004;8.372;2022-10-30T05:32:23;100689.31;;;13.94;93.12
12073;BME280;6098;49.004;8.372;2022-10-30T05:47:15;100701.95;;;13.81;92.44
12073;BME280;6098;49.004;8.372;2022-10-30T06:02:06;100702.91;;;13.70;92.32
12073;BME280;6098;49.004;8.372;2022-10-30T06:16:58;100720.66;;;13.61;92.07
12073;BME280;6098;49.004;8.372;2022-10-30T06:31:51;100730.41;;;13.52;92.27
12073;BME280;6098;49.004;8.372;2022-10-30T06:46:44;100732.53;;;13.54;91.73
12073;BME280;6098;49.004;8.372;2022-10-30T07:01:37;100725.87;;;13.64;92.16
12073;BME280;6098;49.004;8.372;2022-10-30T07:16:30;100735.39;;;13.68;92.83
12073;BME280;6098;49.004;8.372;2022-10-30T07:31:22;100737.90;;;13.90;93.92
12073;BME280;6098;49.004;8.372;2022-10-30T07:46:15;100744.81;;;14.23;94.30
12073;BME280;6098;49.004;8.372;2022-10-30T08:01:09;100754.03;;;14.53;94.52
12073;BME280;6098;49.004;8.372;2022-10-30T08:16:04;100759.95;;;14.94;94.38
12073;BME280;6098;49.004;8.372;2022-10-30T08:31:09;100758.02;;;15.40;93.48
12073;BME280;6098;49.004;8.372;2022-10-30T08:46:02;100757.03;;;15.75;90.85
12073;BME280;6098;49.004;8.372;2022-10-30T09:00:55;100759.81;;;16.05;88.34
12073;BME280;6098;49.004;8.372;2022-10-30T09:15:48;100753.94;;;16.46;86.45
12073;BME280;6098;49.004;8.372;2022-10-30T09:30:41;100751.52;;;16.88;81.82
12073;BME280;6098;49.004;8.372;2022-10-30T09:45:45;100753.56;;;17.28;78.00
12073;BME280;6098;49.004;8.372;2022-10-30T10:00:55;100759.80;;;17.64;76.23
12073;BME280;6098;49.004;8.372;2022-10-30T10:15:50;100751.63;;;17.95;74.83
12073;BME280;6098;49.004;8.372;2022-10-30T10:30:53;100751.64;;;18.29;74.08
12073;BME280;6098;49.004;8.372;2022-10-30T10:45:52;100742.82;;;18.68;71.74
12073;BME280;6098;49.004;8.372;2022-10-30T11:00:45;100725.19;;;19.03;70.92
12073;BME280;6098;49.004;8.372;2022-10-30T11:31:00;100717.77;;;19.46;70.99
12073;BME280;6098;49.004;8.372;2022-10-30T11:45:46;100717.66;;;19.66;70.33
12073;BME280;6098;49.004;8.372;2022-10-30T12:00:39;100717.34;;;19.95;68.92
12073;BME280;6098;49.004;8.372;2022-10-30T12:15:36;100701.70;;;20.37;68.82
12073;BME280;6098;49.004;8.372;2022-10-30T12:30:25;100691.00;;;20.60;67.43
12073;BME280;6098;49.004;8.372;2022-10-30T12:45:34;100673.59;;;20.88;64.90
12073;BME280;6098;49.004;8.372;2022-10-30T13:00:35;100660.23;;;21.21;63.91
12073;BME280;6098;49.004;8.372;2022-10-30T13:30:24;100647.45;;;21.57;64.46
12073;BME280;6098;49.004;8.372;2022-10-30T14:00:26;100648.19;;;21.37;62.66
12073;BME280;6098;49.004;8.372;2022-10-30T14:15:39;100654.98;;;21.36;63.06
12073;BME280;6098;49.004;8.372;2022-10-30T14:30:32;100649.58;;;21.25;63.59
12073;BME280;6098;49.004;8.372;2022-10-30T14:45:26;100652.20;;;21.15;65.91
12073;BME280;6098;49.004;8.372;2022-10-30T15:15:17;100650.33;;;20.69;69.63
12073;BME280;6098;49.004;8.372;2022-10-30T15:30:19;100652.59;;;20.40;72.81
12073;BME280;6098;49.004;8.372;2022-10-30T15:45:21;100657.41;;;20.05;76.56
12073;BME280;6098;49.004;8.372;2022-10-30T16:00:19;100656.59;;;19.68;78.78
12073;BME280;6098;49.004;8.372;2022-10-30T16:15:26;100644.61;;;19.28;80.65
12073;BME280;6098;49.004;8.372;2022-10-30T16:30:22;100655.21;;;18.92;82.47
12073;BME280;6098;49.004;8.372;2022-10-30T17:00:21;100648.62;;;18.65;84.44
12073;BME280;6098;49.004;8.372;2022-10-30T17:15:17;100667.61;;;18.41;85.56
12073;BME280;6098;49.004;8.372;2022-10-30T17:30:36;100697.92;;;18.23;86.75
12073;BME280;6098;49.004;8.372;2022-10-30T17:45:33;100720.94;;;18.20;86.12
12073;BME280;6098;49.004;8.372;2022-10-30T18:00:26;100742.01;;;18.19;86.32
12073;BME280;6098;49.004;8.372;2022-10-30T18:30:18;100767.75;;;17.59;88.23
12073;BME280;6098;49.004;8.372;2022-10-30T19:00:16;100780.83;;;17.13;91.13
12073;BME280;6098;49.004;8.372;2022-10-30T19:15:18;100789.12;;;16.93;92.19
12073;BME280;6098;49.004;8.372;2022-10-30T19:30:13;100789.30;;;16.76;91.79
12073;BME280;6098;49.004;8.372;2022-10-30T19:45:04;100796.77;;;16.54;92.39
12073;BME280;6098;49.004;8.372;2022-10-30T19:59:56;100796.25;;;16.39;93.63
12073;BME280;6098;49.004;8.372;2022-10-30T20:14:48;100799.10;;;16.28;93.97
12073;BME280;6098;49.004;8.372;2022-10-30T20:29:39;100808.31;;;16.15;93.46
12073;BME280;6098;49.004;8.372;2022-10-30T20:44:31;100823.80;;;16.01;94.57
12073;BME280;6098;49.004;8.372;2022-10-30T20:59:23;100832.66;;;15.93;94.45
12073;BME280;6098;49.004;8.372;2022-10-30T21:14:16;100844.17;;;15.78;93.68
12073;BME280;6098;49.004;8.372;2022-10-30T21:29:07;100848.25;;;15.60;92.79
12073;BME280;6098;49.004;8.372;2022-10-30T21:43:58;100850.67;;;15.48;92.67
12073;BME280;6098;49.004;8.372;2022-10-30T21:58:49;100843.98;;;15.31;92.93
12073;BME280;6098;49.004;8.372;2022-10-30T22:13:41;100853.52;;;15.27;93.62
12073;BME280;6098;49.004;8.372;2022-10-30T22:28:33;100850.20;;;15.13;92.46
12073;BME280;6098;49.004;8.372;2022-10-30T22:43:24;100841.72;;;14.96;92.45
12073;BME280;6098;49.004;8.372;2022-10-30T22:58:16;100840.91;;;14.95;92.58
12073;BME280;6098;49.004;8.372;2022-10-30T23:13:07;100840.23;;;14.81;90.81
12073;BME280;6098;49.004;8.372;2022-10-30T23:27:58;100837.23;;;14.61;91.06
12073;BME280;6098;49.004;8.372;2022-10-30T23:42:53;100831.23;;;14.56;91.82
12073;BME280;6098;49.004;8.372;2022-10-30T23:57:47;100828.11;;;14.47;91.63
